< Typhoon 196732 1967 Season Typhoon 196734 >
Typhoon 196733 (CARLA)
General InformationTrack Information on Google Maps || Disaster Info.ResourceGoogle EarthGE AnimationAtom FeedGeoJSON
Detalied Best Track (Time Zone = UTC)
Year Month Day Hour Lat. Long. Pressure (hPa) Wind (kt) Class Image Chart
1967 10 10 00 11.0 150.0 1005 0 2 -- Chart
1967 10 10 06 10.2 149.2 1005 0 2 -- Chart
1967 10 10 12 9.7 148.4 1006 0 2 -- Chart
1967 10 10 18 9.5 147.3 1005 0 2 -- Chart
1967 10 11 00 9.6 146.3 1005 0 2 -- Chart
1967 10 11 06 9.8 145.6 1002 0 2 -- Chart
1967 10 11 12 10.0 144.6 1004 0 2 -- Chart
1967 10 11 18 10.2 143.7 1002 0 2 -- Chart
1967 10 12 00 10.4 142.5 1004 0 2 -- Chart
1967 10 12 06 10.8 141.5 1000 0 2 -- Chart
1967 10 12 12 11.1 140.4 994 0 9 -- Chart
1967 10 12 18 11.2 139.5 990 0 9 -- Chart
1967 10 13 00 11.2 138.7 986 0 9 -- Chart
1967 10 13 06 11.3 137.8 982 0 9 -- Chart
1967 10 13 12 11.6 137.1 978 0 9 -- Chart
1967 10 13 18 11.8 136.3 968 0 9 -- Chart
1967 10 14 00 12.3 135.7 952 0 9 -- Chart
1967 10 14 06 12.8 135.1 932 0 9 -- Chart
1967 10 14 12 13.3 134.0 918 0 9 -- Chart
1967 10 14 18 14.0 132.9 906 0 9 -- Chart
1967 10 15 00 14.5 131.5 900 0 9 -- Chart
1967 10 15 06 15.1 129.7 910 0 9 -- Chart
1967 10 15 12 15.6 128.5 920 0 9 -- Chart
1967 10 15 18 15.9 127.6 930 0 9 -- Chart
1967 10 16 00 15.9 126.6 940 0 9 -- Chart
1967 10 16 06 16.6 125.2 945 0 9 -- Chart
1967 10 16 12 17.4 124.0 950 0 9 -- Chart
1967 10 16 18 17.7 123.0 960 0 9 -- Chart
1967 10 17 00 17.9 121.8 965 0 9 -- Chart
1967 10 17 06 18.3 121.0 970 0 9 -- Chart
1967 10 17 12 18.7 120.4 975 0 9 -- Chart
1967 10 17 18 18.9 119.7 980 0 9 -- Chart
1967 10 18 00 18.8 118.5 980 0 9 -- Chart
1967 10 18 06 19.0 117.6 982 0 9 -- Chart
1967 10 18 12 19.5 116.5 982 0 9 -- Chart
1967 10 18 18 19.2 115.0 984 0 9 -- Chart
1967 10 19 00 19.8 113.5 984 0 9 -- Chart
1967 10 19 06 19.8 111.9 986 0 9 -- Chart
1967 10 19 12 20.4 110.4 994 0 9 -- Chart
1967 10 19 18 20.7 109.3 1000 0 9 -- Chart
1967 10 20 00 20.8 108.2 1002 0 2 -- Chart
Japan Meteorological Agency Best Track Data | Correction Date : 1989-06-01
< Typhoon 196732 1967 Season Typhoon 196734 >

Help